KHYA/HYA METAR and TAF weather

Enter ICAO airport designator
Station Type Date Time Source
KHYA METAR 2021/05/14 13:56 UTC NOAA

KHYA 141356Z 34012G17KT 10SM CLR 21/02 A3016 RMK AO2 SLP213 T02060017 $


Station Type Date Time Source
KHYA Decoded METAR 2021/05/14 13:56 UTC NOAA

HYANNIS BARNSTABLE BOARDMN, MA, United States (KHYA) 41-40N 070-16W 22M
May 14, 2021 - 09:56 AM EDT / 2021.05.14 1356 UTC
Wind: from the NNW (340 degrees) at 14 MPH (12 KT) gusting to 20 MPH (17 KT):0
Visibility: 10 mile(s):0
Sky conditions: clear
Temperature: 69.1 F (20.6 C)
Dew Point: 35.1 F (1.7 C)
Relative Humidity: 28%
Pressure (altimeter): 30.16 in. Hg (1021 hPa)
ob: KHYA 141356Z 34012G17KT 10SM CLR 21/02 A3016 RMK AO2 SLP213 T02060017
cycle: 14

Station Type Date Time Source
KHYA TAF 2021/05/14 12:22 UTC NOAA

TAF KHYA 141120Z 1412/1512 29006KT P6SM SKC
FM141400 30007KT P6SM FEW250
FM141600 11006KT P6SM FEW070
FM142100 18007KT P6SM SCT070
FM150600 27005KT P6SM FEW150

Example: see airport list